createdAt,value
2019-05-03T00:03:26.156Z,27.60
2019-05-03T00:08:21.750Z,28.60
2019-05-03T00:13:15.884Z,31.30
2019-05-03T00:18:11.674Z,38.87
2019-05-03T00:23:05.747Z,42.40
2019-05-03T00:28:01.731Z,43.37
2019-05-03T00:32:55.608Z,41.13
2019-05-03T00:37:52.596Z,46.17
2019-05-03T00:42:46.767Z,41.80
2019-05-03T00:47:42.165Z,39.37
2019-05-03T00:52:36.251Z,42.70
2019-05-03T00:57:32.095Z,40.37
2019-05-03T01:02:26.368Z,43.93
2019-05-03T01:07:22.241Z,40.27
2019-05-03T01:12:16.408Z,41.90
2019-05-03T01:17:11.777Z,39.87
2019-05-03T01:22:05.982Z,40.27
2019-05-03T01:27:01.936Z,41.67
2019-05-03T01:31:56.042Z,41.17
2019-05-03T01:36:51.764Z,38.33
2019-05-03T01:41:45.888Z,38.20
2019-05-03T01:46:39.837Z,45.07
2019-05-03T01:51:42.071Z,42.67
2019-05-03T01:56:36.073Z,36.97
2019-05-03T02:01:51.580Z,41.50
2019-05-03T02:06:45.840Z,42.27
2019-05-03T02:11:41.983Z,41.80
2019-05-03T02:16:35.683Z,40.77
2019-05-03T02:21:29.667Z,37.87
2019-05-03T02:26:23.647Z,36.07
2019-05-03T02:31:17.597Z,37.53
2019-05-03T02:36:13.655Z,38.13
2019-05-03T02:41:07.409Z,35.97
2019-05-03T02:46:20.105Z,28.90
2019-05-03T02:51:15.639Z,29.03
2019-05-03T02:56:21.074Z,23.43
2019-05-03T03:01:06.661Z,21.77
2019-05-03T03:06:02.601Z,18.07
2019-05-03T03:11:00.381Z,22.87
2019-05-03T03:15:56.142Z,15.73
2019-05-03T03:20:51.812Z,21.77
2019-05-03T03:25:46.911Z,17.43
2019-05-03T03:31:01.408Z,16.30
2019-05-03T03:36:01.132Z,13.00
2019-05-03T03:40:55.319Z,13.90
2019-05-03T03:45:49.202Z,15.40
2019-05-03T03:50:45.749Z,16.77
2019-05-03T03:55:42.566Z,14.33
2019-05-03T04:00:36.656Z,17.00
2019-05-03T04:05:30.773Z,17.57
2019-05-03T04:10:26.252Z,14.27
2019-05-03T04:15:26.039Z,18.83
2019-05-03T04:20:25.747Z,15.33
2019-05-03T04:25:20.731Z,16.80
2019-05-03T04:30:16.564Z,20.50
2019-05-03T04:35:10.782Z,17.97
2019-05-03T04:40:06.241Z,21.30
2019-05-03T04:45:00.395Z,21.47
2019-05-03T04:49:55.525Z,27.47
2019-05-03T04:54:51.630Z,30.80
2019-05-03T04:59:45.597Z,31.37
2019-05-03T05:04:39.653Z,33.23
2019-05-03T05:09:34.899Z,32.03
2019-05-03T05:14:29.100Z,19.50
2019-05-03T05:19:25.460Z,16.70
2019-05-03T05:24:19.602Z,14.57
2019-05-03T05:29:25.345Z,10.57
2019-05-03T05:34:19.593Z,9.97
2019-05-03T05:39:18.473Z,12.20
2019-05-03T05:44:11.422Z,8.73
2019-05-03T05:49:07.420Z,8.17
2019-05-03T05:54:01.399Z,9.27
2019-05-03T05:59:04.479Z,11.93
2019-05-03T06:03:58.477Z,13.50
2019-05-03T06:08:54.803Z,13.90
2019-05-03T06:13:56.763Z,10.50
2019-05-03T06:18:54.388Z,9.67
2019-05-03T06:23:53.190Z,12.97
2019-05-03T06:28:47.157Z,8.33
2019-05-03T06:33:41.127Z,17.27
2019-05-03T06:38:35.090Z,15.70
2019-05-03T06:43:29.048Z,11.47
2019-05-03T06:48:27.969Z,14.13
2019-05-03T06:53:19.115Z,12.83
2019-05-03T06:58:15.183Z,11.77
2019-05-03T07:03:10.865Z,16.63
2019-05-03T07:08:12.682Z,16.77
2019-05-03T07:13:08.919Z,13.87
2019-05-03T07:18:02.706Z,12.90
2019-05-03T07:22:56.704Z,11.70
2019-05-03T07:27:50.758Z,10.40
2019-05-03T07:32:46.644Z,8.20
2019-05-03T07:37:40.591Z,9.30
2019-05-03T07:42:34.796Z,6.97
2019-05-03T07:47:28.800Z,8.40
2019-05-03T07:52:22.810Z,11.17
2019-05-03T07:57:30.995Z,5.67
2019-05-03T08:02:27.263Z,6.43
2019-05-03T08:07:23.097Z,9.80
2019-05-03T08:12:16.791Z,9.57
2019-05-03T08:17:10.763Z,7.47
2019-05-03T08:22:05.133Z,9.23
2019-05-03T08:26:59.260Z,9.37
2019-05-03T08:31:57.857Z,10.10
2019-05-03T08:36:56.448Z,6.70
2019-05-03T08:41:55.467Z,5.80
2019-05-03T08:46:49.577Z,7.03
2019-05-03T08:51:44.383Z,6.67
2019-05-03T08:56:38.439Z,9.40
2019-05-03T09:01:32.419Z,5.60
2019-05-03T09:06:26.580Z,6.77
2019-05-03T09:11:30.731Z,8.53
2019-05-03T09:16:16.792Z,6.70
2019-05-03T09:21:11.000Z,6.53
2019-05-03T09:26:05.134Z,7.77
2019-05-03T09:30:59.181Z,6.97
2019-05-03T09:35:54.994Z,7.33
2019-05-03T09:40:51.846Z,4.90
2019-05-03T09:45:45.774Z,4.97
2019-05-03T09:50:39.916Z,6.50
2019-05-03T09:55:39.055Z,6.33
2019-05-03T10:00:33.137Z,6.57
2019-05-03T10:05:27.254Z,7.70
2019-05-03T10:10:21.317Z,5.53
2019-05-03T10:15:37.361Z,6.43
2019-05-03T10:20:31.419Z,7.50
2019-05-03T10:25:25.537Z,6.70
2019-05-03T10:30:24.148Z,7.28
2019-05-03T10:35:19.162Z,6.10
2019-05-03T10:40:16.993Z,6.77
2019-05-03T10:45:11.164Z,6.17
2019-05-03T10:50:05.437Z,6.75
2019-05-03T10:54:59.424Z,4.40
2019-05-03T10:59:55.442Z,6.72
2019-05-03T11:04:49.467Z,6.77
2019-05-03T11:09:49.844Z,5.70
2019-05-03T11:14:39.635Z,6.85
2019-05-03T11:19:34.775Z,8.20
2019-05-03T11:24:29.014Z,5.47
2019-05-03T11:29:24.760Z,5.40
2019-05-03T11:34:22.713Z,3.58
2019-05-03T11:39:16.921Z,9.25
2019-05-03T11:44:29.508Z,4.80
2019-05-03T11:49:25.376Z,8.93
2019-05-03T11:54:19.416Z,7.08
2019-05-03T11:59:14.775Z,3.90
2019-05-03T12:04:08.790Z,5.97
2019-05-03T12:09:05.629Z,5.22
2019-05-03T12:14:12.643Z,8.00
2019-05-03T12:19:16.531Z,4.85
2019-05-03T12:24:06.214Z,7.50
2019-05-03T12:28:59.185Z,6.58
2019-05-03T12:33:55.045Z,6.62
2019-05-03T12:38:49.127Z,7.25
2019-05-03T12:43:43.171Z,6.37
2019-05-03T12:48:37.174Z,7.60
2019-05-03T12:53:32.355Z,6.75
2019-05-03T12:58:28.251Z,6.45
2019-05-03T13:03:30.224Z,8.05
2019-05-03T13:08:35.240Z,5.95
2019-05-03T13:13:29.578Z,7.00
2019-05-03T13:18:25.245Z,8.35
2019-05-03T13:23:19.645Z,12.13
2019-05-03T13:28:15.301Z,8.85
2019-05-03T13:33:09.662Z,5.83
2019-05-03T13:38:03.643Z,5.87
2019-05-03T13:43:03.581Z,8.50
2019-05-03T13:47:55.266Z,6.60
2019-05-03T13:52:49.439Z,7.58
2019-05-03T13:57:45.826Z,9.15
2019-05-03T14:02:39.605Z,8.00
2019-05-03T14:07:35.327Z,7.75
2019-05-03T14:12:29.638Z,8.68
2019-05-03T14:17:25.415Z,6.83
2019-05-03T14:22:21.330Z,6.12
2019-05-03T14:27:17.129Z,10.13
2019-05-03T14:32:11.306Z,9.38
2019-05-03T14:37:05.258Z,11.55
2019-05-03T14:41:59.250Z,10.55
2019-05-03T14:46:56.651Z,7.47
2019-05-03T14:51:49.290Z,7.03
2019-05-03T14:56:50.982Z,9.87
2019-05-03T15:01:55.157Z,9.23
2019-05-03T15:06:48.963Z,9.63
2019-05-03T15:11:42.927Z,11.00
2019-05-03T15:16:37.435Z,10.93
2019-05-03T15:21:31.408Z,10.43
2019-05-03T15:26:25.555Z,10.17
2019-05-03T15:31:19.532Z,7.80
2019-05-03T15:36:15.429Z,10.97
2019-05-03T15:41:09.615Z,7.77
2019-05-03T15:46:20.812Z,10.13
2019-05-03T15:51:15.131Z,7.25
2019-05-03T15:56:09.300Z,7.83
2019-05-03T16:01:04.697Z,8.63
2019-05-03T16:05:58.993Z,10.08
2019-05-03T16:10:54.717Z,11.40
2019-05-03T16:15:48.832Z,8.20
2019-05-03T16:20:44.924Z,7.03
2019-05-03T16:25:38.933Z,9.53
2019-05-03T16:30:36.595Z,7.27
2019-05-03T16:35:30.718Z,11.07
2019-05-03T16:40:25.245Z,10.77
2019-05-03T16:45:19.519Z,11.93
2019-05-03T16:50:14.508Z,9.50
2019-05-03T16:55:09.010Z,13.37
2019-05-03T17:00:05.750Z,10.60
2019-05-03T17:05:07.834Z,10.10
2019-05-03T17:10:17.620Z,10.33
2019-05-03T17:15:12.142Z,12.67
2019-05-03T17:20:07.617Z,12.40
2019-05-03T17:25:04.309Z,13.33
2019-05-03T17:29:58.789Z,9.70
2019-05-03T17:34:54.708Z,10.80
2019-05-03T17:40:05.834Z,7.37
2019-05-03T17:44:59.845Z,11.27
2019-05-03T17:49:54.682Z,10.10
2019-05-03T17:54:50.659Z,10.13
2019-05-03T17:59:46.586Z,11.00
2019-05-03T18:04:42.488Z,9.70
2019-05-03T18:09:38.399Z,10.87
2019-05-03T18:14:34.365Z,8.50
2019-05-03T18:19:28.418Z,8.10
2019-05-03T18:24:22.410Z,8.60
2019-05-03T18:29:16.392Z,10.97
2019-05-03T18:34:18.917Z,12.63
2019-05-03T18:39:06.696Z,10.27
2019-05-03T18:44:14.923Z,11.93
2019-05-03T18:49:09.001Z,11.80
2019-05-03T18:54:05.356Z,11.93
2019-05-03T18:58:59.117Z,11.10
2019-05-03T19:03:55.480Z,12.23
2019-05-03T19:09:08.162Z,12.27
2019-05-03T19:14:04.690Z,13.93
2019-05-03T19:18:59.143Z,13.73
2019-05-03T19:23:53.190Z,15.83
2019-05-03T19:28:47.228Z,12.53
2019-05-03T19:33:41.341Z,14.00
2019-05-03T19:38:35.405Z,11.97
2019-05-03T19:43:29.430Z,15.03
2019-05-03T19:48:25.444Z,11.40
2019-05-03T19:53:27.263Z,13.40
2019-05-03T19:58:21.463Z,14.83
2019-05-03T20:03:20.328Z,10.83
2019-05-03T20:08:25.176Z,10.80
2019-05-03T20:13:31.754Z,13.33
2019-05-03T20:18:17.834Z,15.23
2019-05-03T20:23:10.981Z,12.07
2019-05-03T20:28:05.086Z,11.60
2019-05-03T20:32:59.079Z,14.90
2019-05-03T20:37:55.197Z,12.83
2019-05-03T20:42:54.369Z,18.60
2019-05-03T20:47:56.649Z,17.17
2019-05-03T20:52:50.762Z,18.37
2019-05-03T20:57:44.770Z,19.20
2019-05-03T21:02:50.529Z,21.83
2019-05-03T21:07:35.190Z,18.13
2019-05-03T21:12:31.394Z,20.23
2019-05-03T21:17:36.013Z,19.27
2019-05-03T21:22:31.415Z,19.53
2019-05-03T21:27:25.385Z,20.03
2019-05-03T21:32:19.647Z,21.40
2019-05-03T21:37:15.146Z,22.20
2019-05-03T21:42:09.175Z,24.97
2019-05-03T21:47:15.268Z,24.07
2019-05-03T21:52:09.492Z,28.20
2019-05-03T21:57:03.568Z,32.13
2019-05-03T22:01:57.948Z,31.70
2019-05-03T22:06:52.025Z,28.80
2019-05-03T22:11:46.011Z,26.63
2019-05-03T22:16:45.166Z,27.33
2019-05-03T22:21:55.164Z,18.93
2019-05-03T22:26:54.007Z,18.27
2019-05-03T22:31:48.205Z,17.63
2019-05-03T22:36:44.270Z,19.67
2019-05-03T22:41:38.118Z,18.43
2019-05-03T22:46:32.182Z,21.60
2019-05-03T22:51:26.283Z,25.33
2019-05-03T22:56:20.240Z,28.93
2019-05-03T23:01:16.432Z,26.27
2019-05-03T23:06:20.273Z,26.80
2019-05-03T23:11:06.955Z,29.10
2019-05-03T23:16:00.915Z,24.67
2019-05-03T23:21:05.542Z,28.63
2019-05-03T23:25:59.552Z,26.43
2019-05-03T23:30:54.833Z,26.40
2019-05-03T23:35:48.893Z,28.43
2019-05-03T23:40:44.672Z,28.73
2019-05-03T23:45:39.028Z,37.00
2019-05-03T23:50:32.992Z,28.67
2019-05-03T23:55:31.652Z,28.53
